Time;durP1;ratioP1;P1;durP2;ratioP2;P2;SDS_P1;SDS_P2;PMS_P1;PMS_P2;Temp;Humidity;BMP_temperature;BMP_pressure;BME280_temperature;BME280_humidity;BME280_pressure;Samples;Min_cycle;Max_cycle;Signal;HPM_P1;HPM_P2
2022/04/03 00:01:33;;;;;;;0.10;0.10;;;;;;;;;;5035552;28;20065;-76
2022/04/03 00:03:58;;;;;;;0.00;0.00;;;;;;;;;;5016596;28;20447;-76
2022/04/03 00:06:24;;;;;;;0.00;0.00;;;;;;;;;;5014455;28;20036;-76
2022/04/03 00:08:51;;;;;;;0.30;0.30;;;;;;;;;;5035337;28;20470;-76
2022/04/03 00:11:16;;;;;;;0.45;0.45;;;;;;;;;;5035483;28;20040;-75
2022/04/03 00:13:42;;;;;;;1.20;1.10;;;;;;;;;;5027923;28;20033;-75
2022/04/03 00:16:07;;;;;;;0.38;0.30;;;;;;;;;;5034703;28;20041;-76
2022/04/03 00:18:33;;;;;;;0.08;0.08;;;;;;;;;;5034602;28;20025;-77
2022/04/03 00:21:00;;;;;;;0.00;0.00;;;;;;;;;;5012059;28;20108;-77
2022/04/03 00:23:27;;;;;;;0.10;0.10;;;;;;;;;;5017975;28;20065;-76
2022/04/03 00:25:53;;;;;;;0.00;0.00;;;;;;;;;;5017757;28;20036;-76
2022/04/03 00:28:19;;;;;;;0.47;0.43;;;;;;;;;;5032415;28;20029;-76
2022/04/03 00:30:45;;;;;;;0.00;0.00;;;;;;;;;;5034336;28;20500;-76
2022/04/03 00:33:11;;;;;;;0.25;0.25;;;;;;;;;;5035295;28;20112;-76
2022/04/03 00:35:36;;;;;;;0.28;0.28;;;;;;;;;;5001173;28;20454;-77
2022/04/03 00:38:02;;;;;;;0.20;0.20;;;;;;;;;;5031404;28;20072;-76
2022/04/03 00:40:27;;;;;;;0.00;0.00;;;;;;;;;;5031833;28;20476;-76
2022/04/03 00:42:52;;;;;;;0.00;0.00;;;;;;;;;;5017489;28;20026;-77
2022/04/03 00:45:20;;;;;;;0.00;0.00;;;;;;;;;;5035023;28;20424;-76
2022/04/03 00:47:48;;;;;;;0.20;0.20;;;;;;;;;;5034416;28;20025;-76
2022/04/03 00:50:14;;;;;;;0.75;0.52;;;;;;;;;;5014911;28;20021;-76
2022/04/03 00:52:40;;;;;;;0.00;0.00;;;;;;;;;;5034714;28;20040;-75
2022/04/03 00:55:08;;;;;;;0.00;0.00;;;;;;;;;;5034727;28;20026;-76
2022/04/03 00:57:33;;;;;;;0.08;0.08;;;;;;;;;;5000644;28;20103;-75
2022/04/03 01:00:01;;;;;;;0.10;0.10;;;;;;;;;;5017114;28;20507;-76
2022/04/03 01:02:27;;;;;;;0.08;0.08;;;;;;;;;;5034582;28;20049;-75
2022/04/03 01:04:55;;;;;;;0.10;0.10;;;;;;;;;;5017286;28;20053;-76
2022/04/03 01:07:25;;;;;;;0.20;0.20;;;;;;;;;;4997813;28;20033;-77
2022/04/03 01:09:51;;;;;;;0.15;0.15;;;;;;;;;;5031901;28;20069;-76
2022/04/03 01:12:17;;;;;;;0.00;0.00;;;;;;;;;;5030312;28;20065;-76
2022/04/03 01:14:45;;;;;;;0.00;0.00;;;;;;;;;;5034280;28;20029;-76
2022/04/03 01:17:13;;;;;;;0.00;0.00;;;;;;;;;;5034430;28;20022;-78
2022/04/03 01:19:41;;;;;;;1.48;0.52;;;;;;;;;;5013420;28;20067;-76
2022/04/03 01:22:14;;;;;;;0.22;0.22;;;;;;;;;;5000576;28;20446;-75
2022/04/03 01:24:43;;;;;;;0.20;0.20;;;;;;;;;;5026681;28;20033;-76
2022/04/03 01:27:10;;;;;;;0.10;0.10;;;;;;;;;;5033063;28;20340;-76
2022/04/03 01:29:44;;;;;;;0.00;0.00;;;;;;;;;;5033593;28;20065;-76
2022/04/03 01:32:14;;;;;;;0.00;0.00;;;;;;;;;;5011316;28;20049;-76
2022/04/03 01:34:39;;;;;;;0.20;0.20;;;;;;;;;;5034064;28;20033;-76
2022/04/03 01:37:08;;;;;;;0.00;0.00;;;;;;;;;;5034108;28;20093;-76
2022/04/03 01:39:33;;;;;;;0.63;0.63;;;;;;;;;;5031721;28;20359;-76
2022/04/03 01:42:10;;;;;;;0.10;0.10;;;;;;;;;;5033215;28;20040;-76
2022/04/03 01:44:38;;;;;;;0.00;0.00;;;;;;;;;;5017418;28;20465;-76
2022/04/03 01:47:03;;;;;;;0.00;0.00;;;;;;;;;;5029127;28;20506;-76
2022/04/03 01:49:29;;;;;;;0.00;0.00;;;;;;;;;;5034040;28;20104;-75
2022/04/03 01:51:54;;;;;;;0.38;0.38;;;;;;;;;;5033993;28;20068;-76
2022/04/03 01:54:24;;;;;;;0.20;0.20;;;;;;;;;;5033805;28;20443;-76
2022/04/03 01:56:49;;;;;;;0.57;0.57;;;;;;;;;;5014017;28;20053;-76
2022/04/03 01:59:15;;;;;;;0.82;0.73;;;;;;;;;;5017195;28;20057;-76
2022/04/03 02:01:44;;;;;;;0.10;0.10;;;;;;;;;;5032868;28;20061;-75
2022/04/03 02:04:12;;;;;;;0.52;0.52;;;;;;;;;;5016715;28;20365;-76
2022/04/03 02:06:42;;;;;;;0.40;0.35;;;;;;;;;;5031975;28;20061;-75
2022/04/03 02:09:08;;;;;;;0.00;0.00;;;;;;;;;;5020404;28;20037;-74
2022/04/03 02:11:35;;;;;;;0.10;0.10;;;;;;;;;;5033152;28;20144;-75
2022/04/03 02:14:00;;;;;;;0.00;0.00;;;;;;;;;;5016365;28;20026;-77
2022/04/03 02:16:28;;;;;;;0.00;0.00;;;;;;;;;;5033680;28;20090;-75
2022/04/03 02:18:53;;;;;;;0.00;0.00;;;;;;;;;;5015740;28;20053;-75
2022/04/03 02:21:18;;;;;;;0.08;0.08;;;;;;;;;;5030010;28;20501;-76
2022/04/03 02:23:44;;;;;;;0.47;0.47;;;;;;;;;;5016638;28;20035;-76
2022/04/03 02:26:09;;;;;;;0.17;0.17;;;;;;;;;;5019851;28;20021;-76
2022/04/03 02:28:35;;;;;;;0.10;0.10;;;;;;;;;;5037386;28;20029;-76
2022/04/03 02:31:02;;;;;;;0.00;0.00;;;;;;;;;;5036997;28;20029;-74
2022/04/03 02:33:30;;;;;;;0.10;0.10;;;;;;;;;;5037450;28;20037;-75
2022/04/03 02:35:55;;;;;;;0.43;0.43;;;;;;;;;;5037349;28;20040;-74
2022/04/03 02:38:21;;;;;;;0.03;0.03;;;;;;;;;;5019163;28;20033;-75
2022/04/03 02:40:46;;;;;;;0.00;0.00;;;;;;;;;;5015803;28;20037;-74
2022/04/03 02:43:12;;;;;;;0.10;0.10;;;;;;;;;;5036737;28;20044;-76
2022/04/03 02:45:38;;;;;;;0.00;0.00;;;;;;;;;;5036741;28;20032;-77
2022/04/03 02:48:06;;;;;;;0.00;0.00;;;;;;;;;;5032722;28;20104;-76
2022/04/03 02:50:32;;;;;;;0.15;0.15;;;;;;;;;;5033565;28;20036;-75
2022/04/03 02:52:58;;;;;;;0.00;0.00;;;;;;;;;;5033889;28;20036;-78
2022/04/03 02:55:33;;;;;;;0.10;0.10;;;;;;;;;;5019182;28;20029;-78
2022/04/03 02:57:58;;;;;;;0.00;0.00;;;;;;;;;;5032155;28;20470;-78
2022/04/03 03:00:36;;;;;;;0.30;0.30;;;;;;;;;;5019121;28;20153;-77
2022/04/03 03:03:04;;;;;;;0.05;0.05;;;;;;;;;;5023276;28;20033;-77
2022/04/03 03:05:29;;;;;;;0.13;0.13;;;;;;;;;;5032959;28;20095;-79
2022/04/03 03:07:55;;;;;;;0.10;0.10;;;;;;;;;;5036266;28;20037;-77
2022/04/03 03:10:23;;;;;;;0.00;0.00;;;;;;;;;;5036671;28;20033;-77
2022/04/03 03:12:48;;;;;;;3.40;1.75;;;;;;;;;;5032751;28;20040;-75
2022/04/03 03:15:16;;;;;;;0.25;0.25;;;;;;;;;;5036567;28;20021;-77
2022/04/03 03:17:42;;;;;;;0.10;0.10;;;;;;;;;;5018860;28;20473;-77
2022/04/03 03:20:08;;;;;;;0.00;0.00;;;;;;;;;;5036591;28;20159;-78
2022/04/03 03:22:34;;;;;;;0.60;0.60;;;;;;;;;;5019163;28;20120;-77
2022/04/03 03:24:59;;;;;;;0.00;0.00;;;;;;;;;;5019403;28;20025;-78
2022/04/03 03:27:27;;;;;;;0.10;0.10;;;;;;;;;;5034523;28;20049;-76
2022/04/03 03:29:53;;;;;;;0.00;0.00;;;;;;;;;;5037279;28;20100;-77
2022/04/03 03:32:18;;;;;;;0.00;0.00;;;;;;;;;;5038838;28;20100;-78
2022/04/03 03:34:43;;;;;;;1.55;0.22;;;;;;;;;;5038834;28;20036;-79
2022/04/03 03:37:09;;;;;;;0.20;0.20;;;;;;;;;;5038398;28;20087;-79
2022/04/03 03:39:34;;;;;;;3.60;0.80;;;;;;;;;;5036678;28;20021;-77
2022/04/03 03:42:00;;;;;;;0.00;0.00;;;;;;;;;;5031084;28;20034;-77
2022/04/03 03:44:25;;;;;;;0.10;0.10;;;;;;;;;;5035322;28;20057;-78
2022/04/03 03:46:50;;;;;;;0.63;0.63;;;;;;;;;;5035481;28;20029;-77
2022/04/03 03:49:19;;;;;;;0.10;0.10;;;;;;;;;;5035767;28;20105;-77
2022/04/03 03:51:45;;;;;;;0.00;0.00;;;;;;;;;;5035837;28;20026;-78
2022/04/03 03:54:10;;;;;;;0.30;0.30;;;;;;;;;;5035825;28;20104;-78
2022/04/03 03:56:36;;;;;;;0.38;0.38;;;;;;;;;;5033105;28;20506;-78
2022/04/03 03:59:06;;;;;;;0.00;0.00;;;;;;;;;;5015765;28;20050;-78
2022/04/03 04:01:32;;;;;;;0.30;0.30;;;;;;;;;;5032124;28;20033;-77
2022/04/03 04:03:57;;;;;;;0.13;0.13;;;;;;;;;;5035006;28;20076;-78
2022/04/03 04:06:25;;;;;;;0.38;0.38;;;;;;;;;;5016218;28;20061;-78
2022/04/03 04:08:53;;;;;;;0.00;0.00;;;;;;;;;;5033698;28;20505;-78
2022/04/03 04:11:18;;;;;;;0.00;0.00;;;;;;;;;;5033859;28;20055;-78
2022/04/03 04:13:44;;;;;;;0.32;0.32;;;;;;;;;;5033961;28;20362;-78
2022/04/03 04:16:13;;;;;;;0.05;0.05;;;;;;;;;;5035420;28;20033;-79
2022/04/03 04:18:38;;;;;;;0.00;0.00;;;;;;;;;;5032385;28;20044;-78
2022/04/03 04:21:06;;;;;;;0.00;0.00;;;;;;;;;;5032433;28;20025;-78
2022/04/03 04:23:32;;;;;;;0.10;0.10;;;;;;;;;;5034842;28;20033;-78
2022/04/03 04:25:58;;;;;;;0.17;0.17;;;;;;;;;;5035154;28;20041;-77
2022/04/03 04:28:25;;;;;;;0.10;0.10;;;;;;;;;;5016084;28;20108;-78
2022/04/03 04:30:51;;;;;;;0.00;0.00;;;;;;;;;;5009325;28;20057;-78
2022/04/03 04:33:16;;;;;;;0.00;0.00;;;;;;;;;;5033297;28;20467;-78
2022/04/03 04:35:42;;;;;;;0.25;0.25;;;;;;;;;;5034657;28;20375;-78
2022/04/03 04:38:07;;;;;;;0.32;0.32;;;;;;;;;;5033125;28;20035;-78
2022/04/03 04:40:33;;;;;;;0.00;0.00;;;;;;;;;;5025000;28;20052;-77
2022/04/03 04:43:04;;;;;;;0.45;0.38;;;;;;;;;;5034574;28;20029;-78
2022/04/03 04:45:29;;;;;;;0.52;0.52;;;;;;;;;;5017589;28;20037;-78
2022/04/03 04:48:00;;;;;;;0.00;0.00;;;;;;;;;;5034150;28;20084;-78
2022/04/03 04:50:29;;;;;;;0.00;0.00;;;;;;;;;;5034410;28;20033;-78
2022/04/03 04:52:58;;;;;;;3.00;0.75;;;;;;;;;;5014170;28;20084;-78
2022/04/03 04:55:24;;;;;;;0.00;0.00;;;;;;;;;;5031773;28;20363;-78
2022/04/03 04:57:52;;;;;;;0.17;0.17;;;;;;;;;;5016552;28;20116;-77
2022/04/03 05:00:18;;;;;;;0.30;0.30;;;;;;;;;;5034416;28;20022;-79
2022/04/03 05:02:46;;;;;;;0.00;0.00;;;;;;;;;;5017006;28;20457;-78
2022/04/03 05:05:14;;;;;;;0.00;0.00;;;;;;;;;;5016772;28;20163;-78
2022/04/03 05:07:41;;;;;;;0.00;0.00;;;;;;;;;;5033583;28;20135;-78
2022/04/03 05:10:07;;;;;;;0.10;0.10;;;;;;;;;;5016778;28;20060;-78
2022/04/03 05:12:35;;;;;;;0.10;0.10;;;;;;;;;;5012865;28;20079;-78
2022/04/03 05:15:01;;;;;;;0.20;0.20;;;;;;;;;;5034559;28;20112;-78
2022/04/03 05:17:29;;;;;;;0.00;0.00;;;;;;;;;;5012227;28;20025;-78
2022/04/03 05:19:54;;;;;;;0.22;0.22;;;;;;;;;;5030165;28;20060;-78
2022/04/03 05:22:23;;;;;;;0.17;0.17;;;;;;;;;;5034083;28;20049;-77
2022/04/03 05:24:55;;;;;;;0.00;0.00;;;;;;;;;;5033848;28;20076;-78
2022/04/03 05:27:20;;;;;;;0.00;0.00;;;;;;;;;;5031459;28;20116;-78
2022/04/03 05:29:46;;;;;;;0.17;0.10;;;;;;;;;;5008136;28;20690;-78
2022/04/03 05:32:14;;;;;;;0.15;0.15;;;;;;;;;;5033851;28;20407;-78
2022/04/03 05:34:40;;;;;;;0.00;0.00;;;;;;;;;;5034148;28;20098;-78
2022/04/03 05:37:06;;;;;;;0.05;0.05;;;;;;;;;;5016174;28;20439;-81
2022/04/03 05:39:31;;;;;;;0.10;0.10;;;;;;;;;;5028775;28;20030;-78
2022/04/03 05:41:56;;;;;;;0.00;0.00;;;;;;;;;;5029399;28;20469;-77
2022/04/03 05:44:25;;;;;;;0.00;0.00;;;;;;;;;;5033550;28;20041;-78
2022/04/03 05:46:55;;;;;;;0.00;0.00;;;;;;;;;;5029936;28;20056;-78
2022/04/03 05:49:20;;;;;;;0.05;0.05;;;;;;;;;;5016781;28;20447;-77
2022/04/03 05:51:46;;;;;;;0.10;0.10;;;;;;;;;;5015334;28;20045;-77
2022/04/03 05:54:11;;;;;;;0.00;0.00;;;;;;;;;;5028659;28;20041;-78
2022/04/03 05:56:39;;;;;;;0.00;0.00;;;;;;;;;;5034635;28;20053;-77
2022/04/03 05:59:06;;;;;;;0.20;0.20;;;;;;;;;;5004869;28;20312;-77
2022/04/03 06:01:32;;;;;;;0.00;0.00;;;;;;;;;;5036943;28;20021;-77
2022/04/03 06:03:57;;;;;;;0.00;0.00;;;;;;;;;;5036401;28;20032;-78
2022/04/03 06:06:25;;;;;;;0.00;0.00;;;;;;;;;;5015994;28;20021;-79
2022/04/03 06:08:55;;;;;;;0.00;0.00;;;;;;;;;;5035311;28;20033;-78
2022/04/03 06:11:20;;;;;;;0.03;0.03;;;;;;;;;;5037404;28;20033;-78
2022/04/03 06:13:46;;;;;;;0.52;0.52;;;;;;;;;;5017782;28;20405;-78
2022/04/03 06:16:11;;;;;;;0.22;0.22;;;;;;;;;;5036999;28;20048;-78
2022/04/03 06:18:39;;;;;;;0.03;0.03;;;;;;;;;;5036907;28;20521;-78
2022/04/03 06:21:08;;;;;;;0.20;0.20;;;;;;;;;;5036741;28;20095;-77
2022/04/03 06:23:33;;;;;;;0.00;0.00;;;;;;;;;;5032955;28;20137;-78
2022/04/03 06:25:58;;;;;;;0.30;0.30;;;;;;;;;;5037469;28;20482;-78
2022/04/03 06:28:25;;;;;;;0.52;0.52;;;;;;;;;;5035653;28;20033;-78
2022/04/03 06:30:50;;;;;;;0.20;0.15;;;;;;;;;;5037416;28;20095;-78
2022/04/03 06:33:17;;;;;;;0.10;0.10;;;;;;;;;;5019312;28;20405;-77
2022/04/03 06:35:43;;;;;;;1.65;0.95;;;;;;;;;;5019698;28;20088;-76
2022/04/03 06:38:08;;;;;;;0.38;0.38;;;;;;;;;;5032470;28;20040;-76
2022/04/03 06:40:35;;;;;;;0.00;0.00;;;;;;;;;;5032164;28;20358;-76
2022/04/03 06:43:03;;;;;;;0.52;0.52;;;;;;;;;;5011456;28;20397;-77
2022/04/03 06:45:31;;;;;;;0.10;0.10;;;;;;;;;;5013969;28;20358;-78
2022/04/03 06:48:00;;;;;;;0.00;0.00;;;;;;;;;;5013189;28;20033;-77
2022/04/03 06:50:26;;;;;;;0.90;0.82;;;;;;;;;;5016005;28;20068;-78
2022/04/03 06:52:51;;;;;;;0.32;0.32;;;;;;;;;;5031669;28;20053;-78
2022/04/03 06:55:17;;;;;;;0.25;0.25;;;;;;;;;;5033700;28;20108;-78
2022/04/03 06:57:44;;;;;;;0.13;0.13;;;;;;;;;;5035988;28;20029;-78
2022/04/03 07:00:13;;;;;;;0.03;0.03;;;;;;;;;;5035005;28;20021;-77
2022/04/03 07:02:38;;;;;;;0.30;0.30;;;;;;;;;;5018045;28;20409;-76
2022/04/03 07:05:04;;;;;;;0.55;0.55;;;;;;;;;;5019278;28;20112;-77
2022/04/03 07:07:30;;;;;;;0.17;0.17;;;;;;;;;;5012445;28;20030;-78
2022/04/03 07:09:55;;;;;;;0.13;0.13;;;;;;;;;;5035591;28;20036;-78
2022/04/03 07:12:23;;;;;;;1.00;0.55;;;;;;;;;;5031426;28;20021;-77
2022/04/03 07:14:51;;;;;;;0.60;0.60;;;;;;;;;;5032574;28;20026;-78
2022/04/03 07:17:17;;;;;;;0.00;0.00;;;;;;;;;;5030963;28;20394;-76
2022/04/03 07:19:42;;;;;;;6.10;0.40;;;;;;;;;;5035459;28;20025;-77
2022/04/03 07:22:08;;;;;;;1.02;0.95;;;;;;;;;;5014547;28;20462;-77
2022/04/03 07:24:33;;;;;;;0.10;0.10;;;;;;;;;;5034485;28;20025;-76
2022/04/03 07:26:58;;;;;;;0.28;0.28;;;;;;;;;;5033741;28;20033;-76
2022/04/03 07:29:24;;;;;;;0.20;0.20;;;;;;;;;;5024093;28;20465;-77
2022/04/03 07:31:50;;;;;;;0.22;0.22;;;;;;;;;;5010246;28;20040;-77
2022/04/03 07:34:16;;;;;;;1.02;0.93;;;;;;;;;;5015917;28;20032;-77
2022/04/03 07:36:42;;;;;;;0.20;0.20;;;;;;;;;;5014880;28;20031;-76
2022/04/03 07:39:09;;;;;;;0.00;0.00;;;;;;;;;;5019018;28;20346;-78
2022/04/03 07:41:34;;;;;;;0.43;0.43;;;;;;;;;;5030471;28;20026;-79
2022/04/03 07:44:02;;;;;;;0.00;0.00;;;;;;;;;;5039744;28;20164;-79
2022/04/03 07:46:28;;;;;;;0.28;0.28;;;;;;;;;;5044685;28;20037;-78
2022/04/03 07:48:53;;;;;;;0.88;0.63;;;;;;;;;;5033271;28;20029;-80
2022/04/03 07:51:21;;;;;;;0.08;0.08;;;;;;;;;;5027210;28;20089;-79
2022/04/03 07:53:46;;;;;;;0.32;0.32;;;;;;;;;;5015682;28;20054;-77
2022/04/03 07:56:12;;;;;;;0.00;0.00;;;;;;;;;;5033807;28;20895;-76
2022/04/03 07:58:37;;;;;;;0.20;0.20;;;;;;;;;;5033566;28;20037;-77
2022/04/03 08:01:03;;;;;;;1.52;0.52;;;;;;;;;;5029901;28;20088;-77
2022/04/03 08:03:31;;;;;;;0.32;0.32;;;;;;;;;;5027257;28;20057;-76
2022/04/03 08:05:57;;;;;;;0.10;0.10;;;;;;;;;;5035391;28;20091;-76
2022/04/03 08:08:22;;;;;;;0.30;0.22;;;;;;;;;;5031351;28;20033;-76
2022/04/03 08:10:50;;;;;;;0.20;0.20;;;;;;;;;;5035671;28;20048;-77
2022/04/03 08:13:20;;;;;;;1.08;0.93;;;;;;;;;;5030759;28;20453;-77
2022/04/03 08:15:46;;;;;;;0.00;0.00;;;;;;;;;;5017509;28;20022;-77
2022/04/03 08:18:14;;;;;;;0.20;0.20;;;;;;;;;;5033424;28;20025;-78
2022/04/03 08:20:39;;;;;;;0.43;0.43;;;;;;;;;;5029495;28;20144;-78
2022/04/03 08:23:05;;;;;;;0.98;0.40;;;;;;;;;;5028973;28;20108;-78
2022/04/03 08:25:34;;;;;;;0.73;0.32;;;;;;;;;;5034954;28;20025;-78
2022/04/03 08:28:02;;;;;;;0.70;0.32;;;;;;;;;;5018754;28;20033;-78
2022/04/03 08:30:30;;;;;;;0.20;0.20;;;;;;;;;;5028359;28;20408;-78
2022/04/03 08:32:56;;;;;;;0.60;0.60;;;;;;;;;;5032560;28;20086;-78
2022/04/03 08:35:26;;;;;;;2.17;0.65;;;;;;;;;;5022231;28;20465;-79
2022/04/03 08:37:51;;;;;;;0.55;0.55;;;;;;;;;;5034113;28;20052;-78
2022/04/03 08:40:18;;;;;;;0.30;0.30;;;;;;;;;;5017089;28;20431;-78
2022/04/03 08:42:47;;;;;;;0.43;0.35;;;;;;;;;;4999942;28;20107;-77
2022/04/03 08:45:15;;;;;;;0.52;0.52;;;;;;;;;;5017133;28;20064;-78
2022/04/03 08:47:47;;;;;;;0.30;0.30;;;;;;;;;;5016567;28;20037;-79
2022/04/03 08:50:16;;;;;;;0.08;0.08;;;;;;;;;;5031989;28;20087;-78
2022/04/03 08:52:46;;;;;;;0.60;0.60;;;;;;;;;;5014672;28;20037;-79
2022/04/03 08:55:12;;;;;;;2.75;0.85;;;;;;;;;;5031580;28;20026;-78
2022/04/03 08:57:38;;;;;;;1.83;0.90;;;;;;;;;;5015102;28;20052;-78
2022/04/03 09:00:07;;;;;;;0.17;0.17;;;;;;;;;;5033393;28;20060;-78
2022/04/03 09:02:32;;;;;;;0.55;0.45;;;;;;;;;;5035091;28;20033;-76
2022/04/03 09:04:58;;;;;;;0.10;0.10;;;;;;;;;;5034210;28;20025;-78
2022/04/03 09:07:23;;;;;;;0.00;0.00;;;;;;;;;;5034575;28;20044;-78
2022/04/03 09:10:18;;;;;;;0.10;0.10;;;;;;;;;;5015344;28;20603;-77
2022/04/03 09:12:50;;;;;;;2.63;0.98;;;;;;;;;;5021055;28;20091;-76
2022/04/03 09:15:22;;;;;;;0.38;0.38;;;;;;;;;;5011634;28;20451;-78
2022/04/03 09:18:08;;;;;;;0.47;0.20;;;;;;;;;;5022544;28;20021;-77
2022/04/03 09:20:43;;;;;;;0.30;0.30;;;;;;;;;;5013040;28;20040;-78
2022/04/03 09:23:27;;;;;;;0.00;0.00;;;;;;;;;;5010295;28;20036;-78
2022/04/03 09:25:52;;;;;;;0.65;0.40;;;;;;;;;;5032469;28;20458;-76
2022/04/03 09:28:17;;;;;;;0.08;0.08;;;;;;;;;;5017304;28;20041;-78
2022/04/03 09:30:49;;;;;;;0.00;0.00;;;;;;;;;;5015462;28;20049;-78
2022/04/03 09:33:19;;;;;;;0.95;0.13;;;;;;;;;;4992850;28;20040;-76
2022/04/03 09:36:03;;;;;;;0.10;0.10;;;;;;;;;;5029594;28;20048;-76
2022/04/03 09:38:35;;;;;;;0.00;0.00;;;;;;;;;;5012125;28;20087;-78
2022/04/03 09:41:03;;;;;;;0.15;0.15;;;;;;;;;;5029714;28;20026;-78
2022/04/03 09:43:28;;;;;;;0.20;0.20;;;;;;;;;;5033513;28;20164;-78
2022/04/03 09:45:59;;;;;;;2.38;1.27;;;;;;;;;;5032376;28;20462;-78
2022/04/03 09:48:27;;;;;;;0.30;0.22;;;;;;;;;;5016514;28;20029;-78
2022/04/03 09:51:05;;;;;;;0.60;0.60;;;;;;;;;;5033334;28;20402;-75
2022/04/03 09:53:44;;;;;;;0.10;0.10;;;;;;;;;;5026506;28;20508;-77
2022/04/03 09:56:11;;;;;;;0.28;0.28;;;;;;;;;;5014616;28;20042;-77
2022/04/03 09:58:51;;;;;;;0.17;0.17;;;;;;;;;;5031050;28;20041;-78
2022/04/03 10:01:21;;;;;;;0.00;0.00;;;;;;;;;;5010057;28;20026;-78
2022/04/03 10:03:50;;;;;;;0.15;0.15;;;;;;;;;;5031054;28;20039;-76
2022/04/03 10:06:18;;;;;;;0.10;0.10;;;;;;;;;;5016654;28;20022;-76
2022/04/03 10:08:48;;;;;;;0.20;0.20;;;;;;;;;;5030929;28;20025;-76
2022/04/03 10:11:15;;;;;;;0.20;0.20;;;;;;;;;;5025679;28;20045;-77
2022/04/03 10:13:46;;;;;;;0.57;0.57;;;;;;;;;;5016628;28;20375;-76
2022/04/03 10:16:14;;;;;;;0.00;0.00;;;;;;;;;;5014811;28;20040;-76
2022/04/03 10:18:41;;;;;;;0.05;0.05;;;;;;;;;;5011559;28;20072;-75
2022/04/03 10:21:31;;;;;;;0.00;0.00;;;;;;;;;;5009026;28;20514;-76
2022/04/03 10:24:07;;;;;;;0.22;0.22;;;;;;;;;;5013261;28;20065;-76
2022/04/03 10:26:36;;;;;;;0.80;0.80;;;;;;;;;;5014341;28;20048;-76
2022/04/03 10:29:02;;;;;;;0.00;0.00;;;;;;;;;;4993804;28;20573;-76
2022/04/03 10:31:30;;;;;;;0.35;0.35;;;;;;;;;;5006203;28;20040;-76
2022/04/03 10:33:55;;;;;;;0.00;0.00;;;;;;;;;;5021881;28;20067;-76
2022/04/03 10:36:29;;;;;;;0.00;0.00;;;;;;;;;;5034114;28;20069;-76
2022/04/03 10:39:04;;;;;;;0.45;0.45;;;;;;;;;;5031823;28;20034;-76
2022/04/03 10:41:35;;;;;;;0.38;0.03;;;;;;;;;;5027198;28;20029;-76
2022/04/03 10:44:24;;;;;;;0.20;0.20;;;;;;;;;;5033512;28;20029;-75
2022/04/03 10:47:02;;;;;;;0.17;0.17;;;;;;;;;;5032017;28;20040;-77
2022/04/03 10:49:59;;;;;;;1.98;0.35;;;;;;;;;;5035387;28;20029;-76
2022/04/03 10:52:39;;;;;;;0.00;0.00;;;;;;;;;;5031813;28;20040;-77
2022/04/03 10:55:12;;;;;;;0.65;0.65;;;;;;;;;;5028564;28;20025;-77
2022/04/03 10:57:46;;;;;;;0.10;0.10;;;;;;;;;;5035143;28;20100;-78
2022/04/03 11:00:12;;;;;;;2.05;0.38;;;;;;;;;;5015170;28;20498;-78
2022/04/03 11:02:42;;;;;;;1.77;1.00;;;;;;;;;;5012337;28;20029;-76
2022/04/03 11:05:25;;;;;;;0.35;0.35;;;;;;;;;;5030618;28;20036;-77
2022/04/03 11:08:15;;;;;;;1.08;0.30;;;;;;;;;;5028994;28;20095;-79
2022/04/03 11:10:50;;;;;;;0.10;0.10;;;;;;;;;;5022840;28;20061;-78
2022/04/03 11:13:36;;;;;;;0.13;0.13;;;;;;;;;;5031915;28;20037;-76
2022/04/03 11:16:02;;;;;;;1.42;0.40;;;;;;;;;;5032032;28;20026;-76
2022/04/03 11:18:29;;;;;;;0.13;0.13;;;;;;;;;;5034984;28;20374;-76
2022/04/03 11:21:07;;;;;;;1.67;0.50;;;;;;;;;;5014379;28;20152;-78
2022/04/03 11:23:35;;;;;;;1.33;0.40;;;;;;;;;;5033636;28;20032;-77
2022/04/03 11:26:02;;;;;;;0.65;0.40;;;;;;;;;;5034278;28;20063;-76
2022/04/03 11:28:28;;;;;;;0.17;0.10;;;;;;;;;;5022644;28;20039;-75
2022/04/03 11:30:56;;;;;;;0.00;0.00;;;;;;;;;;5029280;28;20037;-76
2022/04/03 11:33:21;;;;;;;0.73;0.50;;;;;;;;;;5026920;28;21953;-74
2022/04/03 11:35:49;;;;;;;0.47;0.47;;;;;;;;;;5020289;28;20026;-76
2022/04/03 11:38:15;;;;;;;0.20;0.10;;;;;;;;;;5034786;28;20029;-75
2022/04/03 11:40:44;;;;;;;0.00;0.00;;;;;;;;;;5020118;28;20412;-76
2022/04/03 11:43:18;;;;;;;1.15;0.57;;;;;;;;;;4997176;28;20084;-74
2022/04/03 11:45:55;;;;;;;0.22;0.22;;;;;;;;;;5030365;28;20071;-78
2022/04/03 11:48:22;;;;;;;0.30;0.28;;;;;;;;;;4995515;28;1082879;-75
2022/04/03 11:50:50;;;;;;;0.35;0.35;;;;;;;;;;5032595;28;20107;-76
2022/04/03 11:53:18;;;;;;;0.10;0.10;;;;;;;;;;5035031;28;20029;-77
2022/04/03 11:56:01;;;;;;;0.40;0.38;;;;;;;;;;5030730;28;20132;-78
2022/04/03 11:58:59;;;;;;;0.20;0.20;;;;;;;;;;5003092;28;20044;-76
2022/04/03 12:01:56;;;;;;;0.32;0.32;;;;;;;;;;4996931;28;20383;-77
2022/04/03 12:04:23;;;;;;;0.55;0.55;;;;;;;;;;5016469;28;20040;-77
2022/04/03 12:07:00;;;;;;;0.25;0.15;;;;;;;;;;5000061;28;20038;-76
2022/04/03 12:09:28;;;;;;;0.52;0.52;;;;;;;;;;5033728;28;20037;-76
2022/04/03 12:12:04;;;;;;;0.10;0.10;;;;;;;;;;5033847;28;20032;-75
2022/04/03 12:14:31;;;;;;;0.10;0.10;;;;;;;;;;5030728;28;20040;-76
2022/04/03 12:17:00;;;;;;;0.20;0.20;;;;;;;;;;5032420;28;20017;-77
2022/04/03 12:19:29;;;;;;;0.20;0.20;;;;;;;;;;5034390;28;20052;-75
2022/04/03 12:22:00;;;;;;;1.30;1.20;;;;;;;;;;5039318;28;20334;-75
2022/04/03 12:24:25;;;;;;;0.13;0.13;;;;;;;;;;5016161;28;20125;-74
2022/04/03 12:26:57;;;;;;;0.57;0.25;;;;;;;;;;5017295;28;20120;-74
2022/04/03 12:29:26;;;;;;;0.45;0.45;;;;;;;;;;5025555;28;20034;-74
2022/04/03 12:32:01;;;;;;;0.30;0.30;;;;;;;;;;5028314;28;20514;-74
2022/04/03 12:34:28;;;;;;;0.52;0.10;;;;;;;;;;5031564;28;20041;-74
2022/04/03 12:36:54;;;;;;;0.00;0.00;;;;;;;;;;5016962;28;20561;-74
2022/04/03 12:39:41;;;;;;;0.20;0.20;;;;;;;;;;5030715;28;20056;-74
2022/04/03 12:42:10;;;;;;;0.40;0.40;;;;;;;;;;5030116;28;20022;-74
2022/04/03 12:45:02;;;;;;;0.20;0.20;;;;;;;;;;5013745;28;20025;-75
2022/04/03 12:47:30;;;;;;;0.50;0.35;;;;;;;;;;5031238;28;20029;-77
2022/04/03 12:50:10;;;;;;;0.35;0.35;;;;;;;;;;5026729;28;20063;-76
2022/04/03 12:52:45;;;;;;;0.20;0.20;;;;;;;;;;5029511;28;20037;-76
2022/04/03 12:55:29;;;;;;;0.30;0.30;;;;;;;;;;5034524;28;20494;-74
2022/04/03 13:00:53;;;;;;;0.10;0.10;;;;;;;;;;5030302;28;20036;-74
2022/04/03 13:03:34;;;;;;;2.28;0.32;;;;;;;;;;5030474;28;20347;-75
2022/04/03 13:06:04;;;;;;;2.45;0.93;;;;;;;;;;5034519;28;20427;-75
2022/04/03 13:08:50;;;;;;;0.10;0.10;;;;;;;;;;5034611;28;20025;-74
2022/04/03 13:11:25;;;;;;;0.10;0.10;;;;;;;;;;5010726;28;20029;-75
2022/04/03 13:13:53;;;;;;;0.10;0.10;;;;;;;;;;5033923;28;20025;-75
2022/04/03 13:16:21;;;;;;;0.30;0.30;;;;;;;;;;5015816;28;20025;-75
2022/04/03 13:18:49;;;;;;;0.03;0.03;;;;;;;;;;5034498;28;20021;-75
2022/04/03 13:21:18;;;;;;;0.47;0.43;;;;;;;;;;5034726;28;20048;-75
2022/04/03 13:23:44;;;;;;;0.10;0.10;;;;;;;;;;5016973;28;20108;-75
2022/04/03 13:26:12;;;;;;;0.00;0.00;;;;;;;;;;5034356;28;20121;-75
2022/04/03 13:28:39;;;;;;;0.10;0.10;;;;;;;;;;5034542;28;20463;-75
2022/04/03 13:31:07;;;;;;;0.20;0.05;;;;;;;;;;5034438;28;20029;-75
2022/04/03 13:33:33;;;;;;;1.27;0.65;;;;;;;;;;5034123;28;20029;-74
2022/04/03 13:36:03;;;;;;;0.17;0.17;;;;;;;;;;5032107;28;20179;-75
2022/04/03 13:38:28;;;;;;;0.00;0.00;;;;;;;;;;5017204;28;20022;-77
2022/04/03 13:40:56;;;;;;;0.82;0.75;;;;;;;;;;5034005;28;20025;-75
2022/04/03 13:43:21;;;;;;;0.08;0.08;;;;;;;;;;5016008;28;20048;-74
2022/04/03 13:46:02;;;;;;;0.05;0.05;;;;;;;;;;5033185;28;20029;-74
2022/04/03 13:48:34;;;;;;;0.03;0.03;;;;;;;;;;5033848;28;20029;-74
2022/04/03 13:51:02;;;;;;;0.32;0.30;;;;;;;;;;5034262;28;20076;-74
2022/04/03 13:53:28;;;;;;;0.00;0.00;;;;;;;;;;5033923;28;20080;-75
2022/04/03 13:55:56;;;;;;;0.10;0.10;;;;;;;;;;5034005;28;20087;-75
2022/04/03 13:58:26;;;;;;;0.22;0.22;;;;;;;;;;5016754;28;20159;-75
2022/04/03 14:00:59;;;;;;;0.47;0.20;;;;;;;;;;5011081;28;20077;-75
2022/04/03 14:03:26;;;;;;;0.00;0.00;;;;;;;;;;5016765;28;20112;-76
2022/04/03 14:05:54;;;;;;;0.38;0.38;;;;;;;;;;5033892;28;20044;-75
2022/04/03 14:08:19;;;;;;;0.00;0.00;;;;;;;;;;5033837;28;20461;-75
2022/04/03 14:10:50;;;;;;;0.10;0.10;;;;;;;;;;5029385;28;20037;-75
2022/04/03 14:13:20;;;;;;;0.00;0.00;;;;;;;;;;5033049;28;20049;-75
2022/04/03 14:15:52;;;;;;;0.25;0.25;;;;;;;;;;5033383;28;20608;-76
2022/04/03 14:18:20;;;;;;;0.47;0.17;;;;;;;;;;5029573;28;20021;-75
2022/04/03 14:20:48;;;;;;;0.00;0.00;;;;;;;;;;5037662;28;20087;-75
2022/04/03 14:23:15;;;;;;;0.00;0.00;;;;;;;;;;5015904;28;20511;-76
2022/04/03 14:25:40;;;;;;;0.00;0.00;;;;;;;;;;5037628;28;20017;-76
2022/04/03 14:28:05;;;;;;;0.00;0.00;;;;;;;;;;5020216;28;20503;-76
2022/04/03 14:30:31;;;;;;;0.40;0.28;;;;;;;;;;5003757;28;20037;-75
2022/04/03 14:32:57;;;;;;;0.03;0.00;;;;;;;;;;5019848;28;20509;-75
2022/04/03 14:35:26;;;;;;;1.63;0.30;;;;;;;;;;5037376;28;20419;-75
2022/04/03 14:37:51;;;;;;;0.20;0.20;;;;;;;;;;5020098;28;20021;-76
2022/04/03 14:40:17;;;;;;;0.20;0.20;;;;;;;;;;5037274;28;20504;-76
2022/04/03 14:42:45;;;;;;;0.10;0.10;;;;;;;;;;5016731;28;20036;-75
2022/04/03 14:45:12;;;;;;;0.00;0.00;;;;;;;;;;5037223;28;20088;-76
2022/04/03 14:47:38;;;;;;;0.03;0.03;;;;;;;;;;5036975;28;20090;-76
2022/04/03 14:50:09;;;;;;;2.42;0.52;;;;;;;;;;5019875;28;20029;-75
2022/04/03 14:52:37;;;;;;;0.15;0.15;;;;;;;;;;5035898;28;20100;-75
2022/04/03 14:55:03;;;;;;;0.45;0.30;;;;;;;;;;5019497;28;20129;-75